Grannis, Arkansas
Current Conditions -  °F | °C
As of 12:19 PM on Friday 19 Dec 2014 (Local Time) from KDEQ Reporting Station
Overcast Overcast  
Wind Chill: 43°   Ceiling: 1000
Heat Index: 45°   Visibility: 10mi
Dew Point: 42°   Wind: 5mph
Humidity: 90%   Direction: 40°NE
Pressure: 30.19"   Gusts: NA
Location:  34.24°N, 94.33°W
Report Text: KDEQ 191819Z AUTO 04004KT 10SM OVC010 07/06 A3019 RMK AO2 CIG 007V013 T00720056
Loading
Personal Weather Stations






























Interactive Weather Map New forecast layout! Learn more

10-Day Weather Forecast

Advertisements
Track Severe Weather on mobile